Аэропорт: Хабаровск-Новый. Хабаровск

ICAO: UHHH

METAR:
2020-10-19 23:00:00
UHHH 192300Z 24004MPS CAVOK 00/M08 Q1025 R23L/090060 NOSIG RMK QFE762/1016
METAR:
2020-10-19 19:47:00
TAF UHHH 191947Z 1921/2103 25003MPS CAVOK TEMPO 2000/2006 22006MPS